sensor_id;sensor_type;location;lat;lon;timestamp;P1;durP1;ratioP1;P2;durP2;ratioP2
71665;SDS011;59503;53.486;10.196;2023-02-23T00:01:13;44.20;;;13.27;;
71665;SDS011;59503;53.486;10.196;2023-02-23T00:03:41;47.33;;;14.20;;
71665;SDS011;59503;53.486;10.196;2023-02-23T00:06:11;49.13;;;14.10;;
71665;SDS011;59503;53.486;10.196;2023-02-23T00:08:37;51.67;;;13.85;;
71665;SDS011;59503;53.486;10.196;2023-02-23T00:11:04;47.72;;;13.85;;
71665;SDS011;59503;53.486;10.196;2023-02-23T00:13:31;42.67;;;13.93;;
71665;SDS011;59503;53.486;10.196;2023-02-23T00:16:09;49.20;;;14.93;;
71665;SDS011;59503;53.486;10.196;2023-02-23T00:18:43;41.58;;;13.68;;
71665;SDS011;59503;53.486;10.196;2023-02-23T00:21:17;51.35;;;14.60;;
71665;SDS011;59503;53.486;10.196;2023-02-23T00:24:04;48.30;;;14.95;;
71665;SDS011;59503;53.486;10.196;2023-02-23T00:26:32;37.83;;;13.23;;
71665;SDS011;59503;53.486;10.196;2023-02-23T00:29:03;45.75;;;12.82;;
71665;SDS011;59503;53.486;10.196;2023-02-23T00:31:31;46.15;;;13.25;;
71665;SDS011;59503;53.486;10.196;2023-02-23T00:33:57;48.47;;;14.25;;
71665;SDS011;59503;53.486;10.196;2023-02-23T00:36:25;51.40;;;14.53;;
71665;SDS011;59503;53.486;10.196;2023-02-23T00:38:53;50.30;;;15.05;;
71665;SDS011;59503;53.486;10.196;2023-02-23T00:41:20;50.22;;;15.13;;
71665;SDS011;59503;53.486;10.196;2023-02-23T00:43:55;48.15;;;15.18;;
71665;SDS011;59503;53.486;10.196;2023-02-23T00:46:23;50.47;;;14.43;;
71665;SDS011;59503;53.486;10.196;2023-02-23T00:48:51;48.77;;;15.60;;
71665;SDS011;59503;53.486;10.196;2023-02-23T00:51:19;47.85;;;14.45;;
71665;SDS011;59503;53.486;10.196;2023-02-23T00:53:46;47.03;;;14.50;;
71665;SDS011;59503;53.486;10.196;2023-02-23T00:56:12;52.83;;;16.27;;
71665;SDS011;59503;53.486;10.196;2023-02-23T00:58:39;48.38;;;14.73;;
71665;SDS011;59503;53.486;10.196;2023-02-23T01:01:06;53.95;;;15.15;;
71665;SDS011;59503;53.486;10.196;2023-02-23T01:03:33;58.00;;;15.32;;
71665;SDS011;59503;53.486;10.196;2023-02-23T01:06:00;52.13;;;15.40;;
71665;SDS011;59503;53.486;10.196;2023-02-23T01:08:34;50.38;;;15.13;;
71665;SDS011;59503;53.486;10.196;2023-02-23T01:11:06;59.03;;;15.50;;
71665;SDS011;59503;53.486;10.196;2023-02-23T01:13:34;58.95;;;15.27;;
71665;SDS011;59503;53.486;10.196;2023-02-23T01:16:04;61.00;;;16.67;;
71665;SDS011;59503;53.486;10.196;2023-02-23T01:18:31;64.73;;;16.07;;
71665;SDS011;59503;53.486;10.196;2023-02-23T01:20:59;76.75;;;17.50;;
71665;SDS011;59503;53.486;10.196;2023-02-23T01:23:24;59.20;;;15.85;;
71665;SDS011;59503;53.486;10.196;2023-02-23T01:25:50;65.23;;;16.73;;
71665;SDS011;59503;53.486;10.196;2023-02-23T01:28:15;60.37;;;16.10;;
71665;SDS011;59503;53.486;10.196;2023-02-23T01:30:40;53.78;;;15.52;;
71665;SDS011;59503;53.486;10.196;2023-02-23T01:33:06;72.60;;;17.47;;
71665;SDS011;59503;53.486;10.196;2023-02-23T01:35:32;63.13;;;16.25;;
71665;SDS011;59503;53.486;10.196;2023-02-23T01:37:58;50.67;;;15.93;;
71665;SDS011;59503;53.486;10.196;2023-02-23T01:40:24;66.43;;;16.52;;
71665;SDS011;59503;53.486;10.196;2023-02-23T01:43:13;62.43;;;17.03;;
71665;SDS011;59503;53.486;10.196;2023-02-23T01:45:42;53.75;;;15.05;;
71665;SDS011;59503;53.486;10.196;2023-02-23T01:48:11;63.55;;;16.90;;
71665;SDS011;59503;53.486;10.196;2023-02-23T01:50:53;61.10;;;16.25;;
71665;SDS011;59503;53.486;10.196;2023-02-23T01:54:10;54.38;;;15.85;;
71665;SDS011;59503;53.486;10.196;2023-02-23T01:56:40;59.30;;;15.37;;
71665;SDS011;59503;53.486;10.196;2023-02-23T01:59:08;70.22;;;18.23;;
71665;SDS011;59503;53.486;10.196;2023-02-23T02:01:37;64.65;;;16.13;;
71665;SDS011;59503;53.486;10.196;2023-02-23T02:04:06;52.45;;;15.18;;
71665;SDS011;59503;53.486;10.196;2023-02-23T02:06:33;62.50;;;16.65;;
71665;SDS011;59503;53.486;10.196;2023-02-23T02:09:01;46.80;;;14.10;;
71665;SDS011;59503;53.486;10.196;2023-02-23T02:11:41;52.75;;;15.48;;
71665;SDS011;59503;53.486;10.196;2023-02-23T02:39:12;62.63;;;16.42;;
71665;SDS011;59503;53.486;10.196;2023-02-23T02:47:18;58.42;;;16.27;;
71665;SDS011;59503;53.486;10.196;2023-02-23T02:50:02;44.90;;;13.15;;
71665;SDS011;59503;53.486;10.196;2023-02-23T02:52:40;54.15;;;14.93;;
71665;SDS011;59503;53.486;10.196;2023-02-23T02:55:14;56.80;;;15.32;;
71665;SDS011;59503;53.486;10.196;2023-02-23T02:57:48;53.47;;;16.00;;
71665;SDS011;59503;53.486;10.196;2023-02-23T03:00:19;48.83;;;15.02;;
71665;SDS011;59503;53.486;10.196;2023-02-23T03:03:08;59.50;;;14.93;;
71665;SDS011;59503;53.486;10.196;2023-02-23T03:06:15;60.88;;;15.65;;
71665;SDS011;59503;53.486;10.196;2023-02-23T03:09:03;49.15;;;14.60;;
71665;SDS011;59503;53.486;10.196;2023-02-23T03:12:19;50.10;;;13.60;;
71665;SDS011;59503;53.486;10.196;2023-02-23T03:22:01;50.75;;;13.40;;
71665;SDS011;59503;53.486;10.196;2023-02-23T03:25:10;55.00;;;14.43;;
71665;SDS011;59503;53.486;10.196;2023-02-23T03:30:54;55.42;;;14.30;;
71665;SDS011;59503;53.486;10.196;2023-02-23T03:34:04;53.10;;;14.25;;
71665;SDS011;59503;53.486;10.196;2023-02-23T03:37:00;49.88;;;13.68;;
71665;SDS011;59503;53.486;10.196;2023-02-23T03:39:57;53.35;;;13.60;;
71665;SDS011;59503;53.486;10.196;2023-02-23T03:42:46;45.20;;;12.00;;
71665;SDS011;59503;53.486;10.196;2023-02-23T03:45:33;52.60;;;13.98;;
71665;SDS011;59503;53.486;10.196;2023-02-23T03:48:19;57.75;;;15.10;;
71665;SDS011;59503;53.486;10.196;2023-02-23T03:51:07;46.10;;;14.45;;
71665;SDS011;59503;53.486;10.196;2023-02-23T03:54:05;60.17;;;14.98;;
71665;SDS011;59503;53.486;10.196;2023-02-23T03:56:55;52.03;;;14.23;;
71665;SDS011;59503;53.486;10.196;2023-02-23T03:59:43;55.63;;;13.77;;
71665;SDS011;59503;53.486;10.196;2023-02-23T04:02:33;49.50;;;14.45;;
71665;SDS011;59503;53.486;10.196;2023-02-23T04:05:18;62.70;;;15.20;;
71665;SDS011;59503;53.486;10.196;2023-02-23T04:08:06;60.22;;;15.02;;
71665;SDS011;59503;53.486;10.196;2023-02-23T04:10:57;54.27;;;14.43;;
71665;SDS011;59503;53.486;10.196;2023-02-23T04:13:51;52.88;;;14.73;;
71665;SDS011;59503;53.486;10.196;2023-02-23T04:16:22;58.20;;;16.05;;
71665;SDS011;59503;53.486;10.196;2023-02-23T04:18:47;57.73;;;15.23;;
71665;SDS011;59503;53.486;10.196;2023-02-23T04:21:13;52.10;;;14.63;;
71665;SDS011;59503;53.486;10.196;2023-02-23T04:23:39;57.40;;;14.63;;
71665;SDS011;59503;53.486;10.196;2023-02-23T04:26:06;54.85;;;15.43;;
71665;SDS011;59503;53.486;10.196;2023-02-23T04:28:32;51.27;;;14.87;;
71665;SDS011;59503;53.486;10.196;2023-02-23T04:30:57;51.37;;;14.63;;
71665;SDS011;59503;53.486;10.196;2023-02-23T04:33:22;58.03;;;14.73;;
71665;SDS011;59503;53.486;10.196;2023-02-23T04:35:51;53.67;;;14.65;;
71665;SDS011;59503;53.486;10.196;2023-02-23T04:38:18;49.65;;;14.15;;
71665;SDS011;59503;53.486;10.196;2023-02-23T04:40:44;58.63;;;14.55;;
71665;SDS011;59503;53.486;10.196;2023-02-23T04:43:10;53.70;;;14.60;;
71665;SDS011;59503;53.486;10.196;2023-02-23T04:45:37;61.40;;;15.25;;
71665;SDS011;59503;53.486;10.196;2023-02-23T04:48:02;65.07;;;15.17;;
71665;SDS011;59503;53.486;10.196;2023-02-23T04:50:28;60.63;;;15.20;;
71665;SDS011;59503;53.486;10.196;2023-02-23T04:52:54;54.67;;;15.20;;
71665;SDS011;59503;53.486;10.196;2023-02-23T04:55:22;53.57;;;15.80;;
71665;SDS011;59503;53.486;10.196;2023-02-23T04:57:49;58.70;;;15.80;;
71665;SDS011;59503;53.486;10.196;2023-02-23T05:00:16;59.10;;;15.98;;
71665;SDS011;59503;53.486;10.196;2023-02-23T05:02:42;68.07;;;15.52;;
71665;SDS011;59503;53.486;10.196;2023-02-23T05:05:07;65.40;;;15.83;;
71665;SDS011;59503;53.486;10.196;2023-02-23T05:07:34;61.55;;;15.95;;
71665;SDS011;59503;53.486;10.196;2023-02-23T05:10:00;74.10;;;17.15;;
71665;SDS011;59503;53.486;10.196;2023-02-23T05:12:26;65.10;;;15.77;;
71665;SDS011;59503;53.486;10.196;2023-02-23T05:14:51;50.13;;;14.98;;
71665;SDS011;59503;53.486;10.196;2023-02-23T05:17:17;60.77;;;14.83;;
71665;SDS011;59503;53.486;10.196;2023-02-23T05:19:42;61.00;;;14.70;;
71665;SDS011;59503;53.486;10.196;2023-02-23T05:22:07;59.67;;;14.63;;
71665;SDS011;59503;53.486;10.196;2023-02-23T05:24:37;58.17;;;14.45;;
71665;SDS011;59503;53.486;10.196;2023-02-23T05:27:06;59.45;;;16.45;;
71665;SDS011;59503;53.486;10.196;2023-02-23T05:29:32;56.47;;;14.90;;
71665;SDS011;59503;53.486;10.196;2023-02-23T05:31:58;54.93;;;16.17;;
71665;SDS011;59503;53.486;10.196;2023-02-23T05:34:23;59.23;;;14.70;;
71665;SDS011;59503;53.486;10.196;2023-02-23T05:36:49;57.72;;;15.27;;
71665;SDS011;59503;53.486;10.196;2023-02-23T05:39:14;51.63;;;13.97;;
71665;SDS011;59503;53.486;10.196;2023-02-23T05:41:39;57.67;;;17.27;;
71665;SDS011;59503;53.486;10.196;2023-02-23T05:44:05;56.07;;;15.93;;
71665;SDS011;59503;53.486;10.196;2023-02-23T05:46:30;67.60;;;16.58;;
71665;SDS011;59503;53.486;10.196;2023-02-23T05:48:57;64.03;;;15.80;;
71665;SDS011;59503;53.486;10.196;2023-02-23T05:51:24;64.55;;;16.75;;
71665;SDS011;59503;53.486;10.196;2023-02-23T05:53:49;50.88;;;15.48;;
71665;SDS011;59503;53.486;10.196;2023-02-23T05:56:15;58.23;;;15.30;;
71665;SDS011;59503;53.486;10.196;2023-02-23T05:58:46;59.90;;;15.40;;
71665;SDS011;59503;53.486;10.196;2023-02-23T06:01:15;57.80;;;15.40;;
71665;SDS011;59503;53.486;10.196;2023-02-23T06:03:42;60.78;;;17.73;;
71665;SDS011;59503;53.486;10.196;2023-02-23T06:06:08;66.10;;;17.30;;
71665;SDS011;59503;53.486;10.196;2023-02-23T06:08:33;71.63;;;17.50;;
71665;SDS011;59503;53.486;10.196;2023-02-23T06:10:59;57.47;;;15.45;;
71665;SDS011;59503;53.486;10.196;2023-02-23T06:13:24;68.57;;;17.37;;
71665;SDS011;59503;53.486;10.196;2023-02-23T06:15:50;67.53;;;17.27;;
71665;SDS011;59503;53.486;10.196;2023-02-23T06:18:16;64.27;;;15.70;;
71665;SDS011;59503;53.486;10.196;2023-02-23T06:20:41;64.27;;;18.77;;
71665;SDS011;59503;53.486;10.196;2023-02-23T06:23:07;67.63;;;17.75;;
71665;SDS011;59503;53.486;10.196;2023-02-23T06:25:33;66.40;;;16.00;;
71665;SDS011;59503;53.486;10.196;2023-02-23T06:27:59;69.65;;;17.65;;
71665;SDS011;59503;53.486;10.196;2023-02-23T06:30:24;56.63;;;15.40;;
71665;SDS011;59503;53.486;10.196;2023-02-23T06:32:49;54.47;;;15.17;;
71665;SDS011;59503;53.486;10.196;2023-02-23T06:35:15;50.37;;;14.43;;
71665;SDS011;59503;53.486;10.196;2023-02-23T06:37:40;51.47;;;15.40;;
71665;SDS011;59503;53.486;10.196;2023-02-23T06:40:07;51.92;;;15.70;;
71665;SDS011;59503;53.486;10.196;2023-02-23T06:42:33;54.67;;;16.40;;
71665;SDS011;59503;53.486;10.196;2023-02-23T06:45:00;59.35;;;16.08;;
71665;SDS011;59503;53.486;10.196;2023-02-23T06:47:25;54.30;;;16.33;;
71665;SDS011;59503;53.486;10.196;2023-02-23T06:49:51;55.03;;;16.30;;
71665;SDS011;59503;53.486;10.196;2023-02-23T06:52:16;55.58;;;15.82;;
71665;SDS011;59503;53.486;10.196;2023-02-23T06:54:42;55.47;;;16.87;;
71665;SDS011;59503;53.486;10.196;2023-02-23T06:57:08;58.90;;;18.10;;
71665;SDS011;59503;53.486;10.196;2023-02-23T06:59:33;56.67;;;17.55;;
71665;SDS011;59503;53.486;10.196;2023-02-23T07:02:00;57.58;;;17.35;;
71665;SDS011;59503;53.486;10.196;2023-02-23T07:04:26;55.70;;;16.97;;
71665;SDS011;59503;53.486;10.196;2023-02-23T07:06:51;59.53;;;16.50;;
71665;SDS011;59503;53.486;10.196;2023-02-23T07:09:17;56.13;;;15.63;;
71665;SDS011;59503;53.486;10.196;2023-02-23T07:11:43;56.40;;;15.93;;
71665;SDS011;59503;53.486;10.196;2023-02-23T07:14:11;46.28;;;14.57;;
71665;SDS011;59503;53.486;10.196;2023-02-23T07:16:36;46.08;;;15.75;;
71665;SDS011;59503;53.486;10.196;2023-02-23T07:19:03;53.60;;;16.00;;
71665;SDS011;59503;53.486;10.196;2023-02-23T07:21:29;57.90;;;16.33;;
71665;SDS011;59503;53.486;10.196;2023-02-23T07:23:58;59.35;;;17.15;;
71665;SDS011;59503;53.486;10.196;2023-02-23T07:26:25;53.42;;;15.73;;
71665;SDS011;59503;53.486;10.196;2023-02-23T07:28:51;44.97;;;14.80;;
71665;SDS011;59503;53.486;10.196;2023-02-23T07:31:16;48.90;;;15.07;;
71665;SDS011;59503;53.486;10.196;2023-02-23T07:33:42;45.60;;;15.50;;
71665;SDS011;59503;53.486;10.196;2023-02-23T07:36:08;48.28;;;14.20;;
71665;SDS011;59503;53.486;10.196;2023-02-23T07:38:34;47.40;;;14.80;;
71665;SDS011;59503;53.486;10.196;2023-02-23T07:41:00;48.33;;;14.93;;
71665;SDS011;59503;53.486;10.196;2023-02-23T07:43:26;45.97;;;14.15;;
71665;SDS011;59503;53.486;10.196;2023-02-23T07:45:52;46.80;;;15.30;;
71665;SDS011;59503;53.486;10.196;2023-02-23T07:48:19;43.33;;;13.93;;
71665;SDS011;59503;53.486;10.196;2023-02-23T07:50:45;43.63;;;13.97;;
71665;SDS011;59503;53.486;10.196;2023-02-23T07:53:11;49.65;;;15.88;;
71665;SDS011;59503;53.486;10.196;2023-02-23T07:55:37;47.33;;;15.05;;
71665;SDS011;59503;53.486;10.196;2023-02-23T07:58:03;47.83;;;14.27;;
71665;SDS011;59503;53.486;10.196;2023-02-23T08:00:30;48.55;;;15.70;;
71665;SDS011;59503;53.486;10.196;2023-02-23T08:02:56;45.27;;;14.37;;
71665;SDS011;59503;53.486;10.196;2023-02-23T08:05:21;53.30;;;16.77;;
71665;SDS011;59503;53.486;10.196;2023-02-23T08:07:46;50.07;;;15.67;;
71665;SDS011;59503;53.486;10.196;2023-02-23T08:10:12;49.33;;;15.53;;
71665;SDS011;59503;53.486;10.196;2023-02-23T08:12:37;54.37;;;16.20;;
71665;SDS011;59503;53.486;10.196;2023-02-23T08:15:03;44.40;;;15.82;;
71665;SDS011;59503;53.486;10.196;2023-02-23T08:17:32;52.43;;;15.70;;
71665;SDS011;59503;53.486;10.196;2023-02-23T08:19:59;51.90;;;17.30;;
71665;SDS011;59503;53.486;10.196;2023-02-23T08:22:24;53.23;;;16.93;;
71665;SDS011;59503;53.486;10.196;2023-02-23T08:24:50;52.90;;;16.23;;
71665;SDS011;59503;53.486;10.196;2023-02-23T08:27:16;50.90;;;17.13;;
71665;SDS011;59503;53.486;10.196;2023-02-23T08:29:41;56.03;;;17.70;;
71665;SDS011;59503;53.486;10.196;2023-02-23T08:32:07;60.20;;;17.80;;
71665;SDS011;59503;53.486;10.196;2023-02-23T08:34:36;54.55;;;17.45;;
71665;SDS011;59503;53.486;10.196;2023-02-23T08:37:05;65.05;;;20.20;;
71665;SDS011;59503;53.486;10.196;2023-02-23T08:39:31;55.87;;;17.20;;
71665;SDS011;59503;53.486;10.196;2023-02-23T08:41:57;63.85;;;18.63;;
71665;SDS011;59503;53.486;10.196;2023-02-23T08:44:22;65.50;;;19.10;;
71665;SDS011;59503;53.486;10.196;2023-02-23T08:46:48;55.90;;;18.48;;
71665;SDS011;59503;53.486;10.196;2023-02-23T08:49:14;61.27;;;19.77;;
71665;SDS011;59503;53.486;10.196;2023-02-23T08:51:39;60.30;;;19.17;;
71665;SDS011;59503;53.486;10.196;2023-02-23T08:54:05;60.60;;;18.90;;
71665;SDS011;59503;53.486;10.196;2023-02-23T08:56:37;65.80;;;20.85;;
71665;SDS011;59503;53.486;10.196;2023-02-23T08:59:02;58.08;;;18.83;;
71665;SDS011;59503;53.486;10.196;2023-02-23T09:01:28;68.10;;;20.63;;
71665;SDS011;59503;53.486;10.196;2023-02-23T09:03:54;70.20;;;20.67;;
71665;SDS011;59503;53.486;10.196;2023-02-23T09:06:20;65.97;;;21.77;;
71665;SDS011;59503;53.486;10.196;2023-02-23T09:08:47;75.72;;;23.65;;
71665;SDS011;59503;53.486;10.196;2023-02-23T09:11:13;70.03;;;19.90;;
71665;SDS011;59503;53.486;10.196;2023-02-23T09:13:39;70.90;;;23.10;;
71665;SDS011;59503;53.486;10.196;2023-02-23T09:16:04;78.93;;;24.83;;
71665;SDS011;59503;53.486;10.196;2023-02-23T09:18:31;72.47;;;22.67;;
71665;SDS011;59503;53.486;10.196;2023-02-23T09:20:57;80.18;;;23.33;;
71665;SDS011;59503;53.486;10.196;2023-02-23T09:23:26;73.83;;;22.30;;
71665;SDS011;59503;53.486;10.196;2023-02-23T09:25:53;69.88;;;21.80;;
71665;SDS011;59503;53.486;10.196;2023-02-23T09:28:19;76.00;;;23.00;;
71665;SDS011;59503;53.486;10.196;2023-02-23T09:30:45;77.72;;;23.02;;
71665;SDS011;59503;53.486;10.196;2023-02-23T09:33:11;67.45;;;21.95;;
71665;SDS011;59503;53.486;10.196;2023-02-23T09:35:37;69.40;;;21.30;;
71665;SDS011;59503;53.486;10.196;2023-02-23T09:38:05;62.67;;;21.50;;
71665;SDS011;59503;53.486;10.196;2023-02-23T09:40:48;54.95;;;19.88;;
71665;SDS011;59503;53.486;10.196;2023-02-23T09:46:22;70.13;;;21.98;;
71665;SDS011;59503;53.486;10.196;2023-02-23T09:49:04;61.97;;;20.75;;
71665;SDS011;59503;53.486;10.196;2023-02-23T09:51:44;64.93;;;21.70;;
71665;SDS011;59503;53.486;10.196;2023-02-23T09:54:15;72.28;;;23.42;;
71665;SDS011;59503;53.486;10.196;2023-02-23T09:56:44;67.72;;;22.40;;
71665;SDS011;59503;53.486;10.196;2023-02-23T09:59:19;66.45;;;20.77;;
71665;SDS011;59503;53.486;10.196;2023-02-23T10:04:43;56.30;;;19.13;;
71665;SDS011;59503;53.486;10.196;2023-02-23T10:07:14;59.70;;;20.25;;
71665;SDS011;59503;53.486;10.196;2023-02-23T10:09:58;59.88;;;18.63;;
71665;SDS011;59503;53.486;10.196;2023-02-23T10:12:38;64.00;;;20.52;;
71665;SDS011;59503;53.486;10.196;2023-02-23T10:15:22;68.13;;;22.13;;
71665;SDS011;59503;53.486;10.196;2023-02-23T10:20:57;78.70;;;23.13;;
71665;SDS011;59503;53.486;10.196;2023-02-23T10:23:39;73.95;;;22.42;;
71665;SDS011;59503;53.486;10.196;2023-02-23T10:26:13;85.00;;;24.48;;
71665;SDS011;59503;53.486;10.196;2023-02-23T10:28:42;96.35;;;27.00;;
71665;SDS011;59503;53.486;10.196;2023-02-23T10:34:05;109.38;;;28.33;;
71665;SDS011;59503;53.486;10.196;2023-02-23T10:36:39;138.15;;;31.90;;
71665;SDS011;59503;53.486;10.196;2023-02-23T10:39:10;138.90;;;32.60;;
71665;SDS011;59503;53.486;10.196;2023-02-23T10:41:37;149.02;;;33.97;;
71665;SDS011;59503;53.486;10.196;2023-02-23T10:44:04;152.98;;;34.45;;
71665;SDS011;59503;53.486;10.196;2023-02-23T10:46:36;151.15;;;34.67;;
71665;SDS011;59503;53.486;10.196;2023-02-23T10:49:03;156.55;;;33.75;;
71665;SDS011;59503;53.486;10.196;2023-02-23T10:51:33;150.47;;;31.87;;
71665;SDS011;59503;53.486;10.196;2023-02-23T10:57:00;141.70;;;30.90;;
71665;SDS011;59503;53.486;10.196;2023-02-23T10:59:26;120.53;;;29.33;;
71665;SDS011;59503;53.486;10.196;2023-02-23T11:01:52;115.53;;;29.65;;
71665;SDS011;59503;53.486;10.196;2023-02-23T11:04:22;107.73;;;26.90;;
71665;SDS011;59503;53.486;10.196;2023-02-23T11:07:05;110.93;;;28.60;;
71665;SDS011;59503;53.486;10.196;2023-02-23T11:09:31;127.55;;;29.45;;
71665;SDS011;59503;53.486;10.196;2023-02-23T11:11:59;126.68;;;30.17;;
71665;SDS011;59503;53.486;10.196;2023-02-23T11:14:27;121.07;;;28.90;;
71665;SDS011;59503;53.486;10.196;2023-02-23T11:16:55;120.60;;;27.95;;
71665;SDS011;59503;53.486;10.196;2023-02-23T11:19:25;124.70;;;30.70;;
71665;SDS011;59503;53.486;10.196;2023-02-23T11:21:57;126.30;;;29.98;;
71665;SDS011;59503;53.486;10.196;2023-02-23T11:24:23;122.17;;;29.03;;
71665;SDS011;59503;53.486;10.196;2023-02-23T11:26:53;134.80;;;30.98;;
71665;SDS011;59503;53.486;10.196;2023-02-23T11:32:11;122.28;;;27.73;;
71665;SDS011;59503;53.486;10.196;2023-02-23T11:34:39;126.53;;;28.20;;
71665;SDS011;59503;53.486;10.196;2023-02-23T11:39:50;138.93;;;29.45;;
71665;SDS011;59503;53.486;10.196;2023-02-23T11:42:20;134.73;;;30.17;;
71665;SDS011;59503;53.486;10.196;2023-02-23T11:45:06;125.72;;;29.20;;
71665;SDS011;59503;53.486;10.196;2023-02-23T11:47:40;120.18;;;28.13;;
71665;SDS011;59503;53.486;10.196;2023-02-23T11:50:32;127.40;;;27.70;;
71665;SDS011;59503;53.486;10.196;2023-02-23T11:55:35;126.07;;;27.05;;
71665;SDS011;59503;53.486;10.196;2023-02-23T11:58:19;127.47;;;27.88;;
71665;SDS011;59503;53.486;10.196;2023-02-23T12:00:57;128.15;;;27.92;;
71665;SDS011;59503;53.486;10.196;2023-02-23T12:03:25;126.97;;;27.27;;
71665;SDS011;59503;53.486;10.196;2023-02-23T12:05:54;119.82;;;25.90;;
71665;SDS011;59503;53.486;10.196;2023-02-23T12:08:33;104.13;;;24.98;;
71665;SDS011;59503;53.486;10.196;2023-02-23T12:11:21;112.40;;;25.52;;
71665;SDS011;59503;53.486;10.196;2023-02-23T12:16:48;97.33;;;24.00;;
71665;SDS011;59503;53.486;10.196;2023-02-23T12:19:25;101.78;;;24.70;;
71665;SDS011;59503;53.486;10.196;2023-02-23T12:24:41;98.57;;;23.55;;
71665;SDS011;59503;53.486;10.196;2023-02-23T12:27:17;93.35;;;24.40;;
71665;SDS011;59503;53.486;10.196;2023-02-23T12:32:48;93.65;;;23.38;;
71665;SDS011;59503;53.486;10.196;2023-02-23T12:35:22;96.80;;;23.13;;
71665;SDS011;59503;53.486;10.196;2023-02-23T12:37:58;95.60;;;22.27;;
71665;SDS011;59503;53.486;10.196;2023-02-23T12:40:31;88.93;;;21.92;;
71665;SDS011;59503;53.486;10.196;2023-02-23T12:45:51;82.78;;;22.40;;
71665;SDS011;59503;53.486;10.196;2023-02-23T12:51:23;86.30;;;20.27;;
71665;SDS011;59503;53.486;10.196;2023-02-23T12:53:54;83.85;;;21.52;;
71665;SDS011;59503;53.486;10.196;2023-02-23T12:56:42;83.47;;;21.17;;
71665;SDS011;59503;53.486;10.196;2023-02-23T12:59:42;82.50;;;22.25;;
71665;SDS011;59503;53.486;10.196;2023-02-23T13:02:28;83.17;;;21.80;;
71665;SDS011;59503;53.486;10.196;2023-02-23T13:05:12;85.80;;;20.90;;
71665;SDS011;59503;53.486;10.196;2023-02-23T13:10:50;85.63;;;21.13;;
71665;SDS011;59503;53.486;10.196;2023-02-23T13:21:24;82.75;;;21.25;;
71665;SDS011;59503;53.486;10.196;2023-02-23T13:26:37;74.65;;;19.48;;
71665;SDS011;59503;53.486;10.196;2023-02-23T13:29:11;78.60;;;20.27;;
71665;SDS011;59503;53.486;10.196;2023-02-23T13:32:02;76.68;;;20.15;;
71665;SDS011;59503;53.486;10.196;2023-02-23T13:34:34;80.57;;;20.58;;
71665;SDS011;59503;53.486;10.196;2023-02-23T13:37:07;75.97;;;19.92;;
71665;SDS011;59503;53.486;10.196;2023-02-23T13:39:43;76.70;;;20.17;;
71665;SDS011;59503;53.486;10.196;2023-02-23T13:56:14;78.03;;;18.87;;
71665;SDS011;59503;53.486;10.196;2023-02-23T13:58:45;70.18;;;18.10;;
71665;SDS011;59503;53.486;10.196;2023-02-23T14:01:16;76.85;;;19.15;;
71665;SDS011;59503;53.486;10.196;2023-02-23T14:03:53;71.57;;;18.23;;
71665;SDS011;59503;53.486;10.196;2023-02-23T14:06:22;67.25;;;18.90;;
71665;SDS011;59503;53.486;10.196;2023-02-23T14:08:56;67.63;;;18.87;;
71665;SDS011;59503;53.486;10.196;2023-02-23T14:14:14;75.45;;;19.25;;
71665;SDS011;59503;53.486;10.196;2023-02-23T14:17:09;71.30;;;18.25;;
71665;SDS011;59503;53.486;10.196;2023-02-23T14:19:37;69.90;;;17.48;;
71665;SDS011;59503;53.486;10.196;2023-02-23T14:22:10;72.93;;;18.13;;
71665;SDS011;59503;53.486;10.196;2023-02-23T14:24:39;70.80;;;19.00;;
71665;SDS011;59503;53.486;10.196;2023-02-23T14:27:17;66.35;;;15.60;;
71665;SDS011;59503;53.486;10.196;2023-02-23T14:32:38;64.43;;;16.10;;
71665;SDS011;59503;53.486;10.196;2023-02-23T14:37:59;61.40;;;16.00;;
71665;SDS011;59503;53.486;10.196;2023-02-23T14:40:30;61.58;;;16.38;;
71665;SDS011;59503;53.486;10.196;2023-02-23T14:43:00;56.47;;;14.83;;
71665;SDS011;59503;53.486;10.196;2023-02-23T14:45:27;52.55;;;15.25;;
71665;SDS011;59503;53.486;10.196;2023-02-23T14:48:02;52.35;;;14.70;;
71665;SDS011;59503;53.486;10.196;2023-02-23T14:50:34;51.30;;;12.77;;
71665;SDS011;59503;53.486;10.196;2023-02-23T14:53:03;46.58;;;13.07;;
71665;SDS011;59503;53.486;10.196;2023-02-23T14:55:33;44.63;;;11.53;;
71665;SDS011;59503;53.486;10.196;2023-02-23T14:58:02;40.90;;;11.20;;
71665;SDS011;59503;53.486;10.196;2023-02-23T15:00:43;40.30;;;11.45;;
71665;SDS011;59503;53.486;10.196;2023-02-23T15:03:09;39.40;;;10.90;;
71665;SDS011;59503;53.486;10.196;2023-02-23T15:05:44;37.00;;;10.35;;
71665;SDS011;59503;53.486;10.196;2023-02-23T15:08:41;40.08;;;11.10;;
71665;SDS011;59503;53.486;10.196;2023-02-23T15:11:10;36.97;;;9.55;;
71665;SDS011;59503;53.486;10.196;2023-02-23T15:13:41;38.27;;;10.00;;
71665;SDS011;59503;53.486;10.196;2023-02-23T15:16:13;37.78;;;9.35;;
71665;SDS011;59503;53.486;10.196;2023-02-23T15:18:42;36.95;;;9.15;;
71665;SDS011;59503;53.486;10.196;2023-02-23T15:21:14;32.35;;;8.00;;
71665;SDS011;59503;53.486;10.196;2023-02-23T15:23:44;25.45;;;8.15;;
71665;SDS011;59503;53.486;10.196;2023-02-23T15:26:14;22.73;;;7.20;;
71665;SDS011;59503;53.486;10.196;2023-02-23T15:28:49;29.90;;;8.90;;
71665;SDS011;59503;53.486;10.196;2023-02-23T15:31:14;23.87;;;7.23;;
71665;SDS011;59503;53.486;10.196;2023-02-23T15:33:40;24.50;;;6.53;;
71665;SDS011;59503;53.486;10.196;2023-02-23T15:36:07;29.73;;;8.40;;
71665;SDS011;59503;53.486;10.196;2023-02-23T15:38:39;25.65;;;7.57;;
71665;SDS011;59503;53.486;10.196;2023-02-23T15:41:08;24.85;;;7.32;;
71665;SDS011;59503;53.486;10.196;2023-02-23T15:43:41;26.77;;;7.25;;
71665;SDS011;59503;53.486;10.196;2023-02-23T15:46:07;29.00;;;8.47;;
71665;SDS011;59503;53.486;10.196;2023-02-23T15:48:43;23.53;;;7.27;;
71665;SDS011;59503;53.486;10.196;2023-02-23T15:51:30;29.17;;;7.47;;
71665;SDS011;59503;53.486;10.196;2023-02-23T15:54:00;27.13;;;7.95;;
71665;SDS011;59503;53.486;10.196;2023-02-23T15:56:28;28.48;;;8.35;;
71665;SDS011;59503;53.486;10.196;2023-02-23T15:58:55;30.10;;;8.27;;
71665;SDS011;59503;53.486;10.196;2023-02-23T16:01:29;29.00;;;8.27;;
71665;SDS011;59503;53.486;10.196;2023-02-23T16:06:25;32.10;;;8.63;;
71665;SDS011;59503;53.486;10.196;2023-02-23T16:08:57;34.60;;;9.65;;
71665;SDS011;59503;53.486;10.196;2023-02-23T16:11:30;34.10;;;9.30;;
71665;SDS011;59503;53.486;10.196;2023-02-23T16:14:02;33.40;;;9.17;;
71665;SDS011;59503;53.486;10.196;2023-02-23T16:16:28;36.13;;;10.40;;
71665;SDS011;59503;53.486;10.196;2023-02-23T16:18:58;26.08;;;7.75;;
71665;SDS011;59503;53.486;10.196;2023-02-23T16:21:26;34.72;;;8.13;;
71665;SDS011;59503;53.486;10.196;2023-02-23T16:23:58;29.95;;;8.38;;
71665;SDS011;59503;53.486;10.196;2023-02-23T16:26:30;33.03;;;8.43;;
71665;SDS011;59503;53.486;10.196;2023-02-23T16:29:02;31.02;;;8.35;;